Terminal Aerodrome Forecast
Issued by NWS

Home | Current Version | Previous Version | Text Only | Print | Product List | Glossary On
Versions: 1 2 3 4 5 6 7 8 9 10 11 12 13 14 15
000
FTAK31 PANC 240526
TAFAEN
TAF
PAEN 240526Z 2406/2506 21007KT P6SM VCSH BKN060
     FM240700 05005KT P6SM -RA SCT020 OVC050
     FM241500 03010KT 6SM -RA BR BKN025 OVC050
     FM241800 03013KT 5SM -RA BKN020 OVC040
     FM250000 03011KT 6SM BR VCSH OVC025=

USA.gov is the U.S. government's official web portal to all federal, state and local government web resources and services.